Time;durP1;ratioP1;P1;durP2;ratioP2;P2;SDS_P1;SDS_P2;PMS_P1;PMS_P2;Temp;Humidity;BMP_temperature;BMP_pressure;BME280_temperature;BME280_humidity;BME280_pressure;Samples;Min_cycle;Max_cycle;Signal;HPM_P1;HPM_P2
2022/11/04 00:01:17;;;;;;;12.25;6.65;;;;;;;9.94;79.38;99753.31;5026129;28;20054;-64
2022/11/04 00:03:44;;;;;;;11.70;6.45;;;;;;;9.90;79.71;99750.06;5032465;28;20042;-64
2022/11/04 00:06:11;;;;;;;11.88;5.93;;;;;;;9.90;80.16;99744.78;5028604;28;20065;-65
2022/11/04 00:08:38;;;;;;;17.00;6.25;;;;;;;9.93;80.41;99741.13;5026753;28;20414;-65
2022/11/04 00:13:51;;;;;;;19.65;6.63;;;;;;;9.90;80.32;99735.13;5028846;28;20530;-63
2022/11/04 00:19:04;;;;;;;16.98;6.43;;;;;;;9.91;80.32;99728.09;5027566;28;20141;-64
2022/11/04 00:29:49;;;;;;;13.35;6.38;;;;;;;9.82;79.95;99731.38;5026839;28;20056;-63
2022/11/04 00:35:02;;;;;;;13.10;6.35;;;;;;;9.78;80.58;99729.91;5028587;28;20061;-63
2022/11/04 00:37:29;;;;;;;13.70;6.68;;;;;;;9.79;80.98;99728.94;5022969;28;20049;-63
2022/11/04 00:39:56;;;;;;;12.20;6.85;;;;;;;9.80;80.92;99718.31;5025367;28;20422;-62
2022/11/04 00:42:23;;;;;;;16.20;6.82;;;;;;;9.80;80.44;99720.94;5031283;28;20055;-62
2022/11/04 00:44:51;;;;;;;10.52;6.13;;;;;;;9.79;80.47;99713.19;5031772;28;20111;-62
2022/11/04 00:47:18;;;;;;;11.80;6.38;;;;;;;9.78;81.17;99717.59;5028603;28;20050;-62
2022/11/04 00:49:45;;;;;;;13.70;6.93;;;;;;;9.77;81.00;99715.06;5034760;28;20059;-63
2022/11/04 00:52:12;;;;;;;10.35;6.47;;;;;;;9.66;80.53;99713.19;5032446;28;20041;-61
2022/11/04 00:54:39;;;;;;;10.80;6.55;;;;;;;9.66;80.72;99717.59;5028903;28;20506;-63
2022/11/04 00:57:10;;;;;;;12.68;6.82;;;;;;;9.61;80.67;99703.00;5037051;28;20128;-68
2022/11/04 00:59:38;;;;;;;18.58;7.00;;;;;;;9.62;81.12;99709.09;5028703;28;20053;-63
2022/11/04 01:02:06;;;;;;;14.32;6.57;;;;;;;9.63;81.21;99706.34;5030341;28;20050;-63
2022/11/04 01:04:34;;;;;;;13.10;6.40;;;;;;;9.62;81.23;99712.56;5026341;28;20136;-63
2022/11/04 01:07:01;;;;;;;13.10;6.68;;;;;;;9.60;80.32;99709.22;5031449;28;20064;-63
2022/11/04 01:09:28;;;;;;;13.15;7.45;;;;;;;9.57;80.73;99701.53;5029660;28;20055;-63
2022/11/04 01:11:55;;;;;;;13.60;7.32;;;;;;;9.53;81.23;99692.19;5031100;28;20053;-63
2022/11/04 01:14:22;;;;;;;18.52;7.05;;;;;;;9.51;80.99;99691.47;5030511;28;20599;-64
2022/11/04 01:16:49;;;;;;;12.38;6.38;;;;;;;9.49;80.78;99687.25;5027499;28;20065;-63
2022/11/04 01:19:17;;;;;;;13.98;6.88;;;;;;;9.51;81.20;99696.72;5028453;28;20045;-63
2022/11/04 01:21:44;;;;;;;11.85;6.80;;;;;;;9.53;81.86;99691.34;5031311;28;20045;-63
2022/11/04 01:24:11;;;;;;;18.05;8.32;;;;;;;9.56;82.25;99681.47;5029845;28;20080;-64
2022/11/04 01:26:38;;;;;;;14.23;6.47;;;;;;;9.56;82.64;99667.50;5030797;28;20409;-64
2022/11/04 01:29:05;;;;;;;12.88;6.45;;;;;;;9.52;82.29;99664.22;5026214;28;20057;-64
2022/11/04 01:31:32;;;;;;;17.17;6.50;;;;;;;9.52;82.75;99671.28;5031329;28;20132;-63
2022/11/04 01:34:00;;;;;;;14.52;6.93;;;;;;;9.47;83.00;99666.34;5031146;28;20714;-64
2022/11/04 01:36:27;;;;;;;12.32;7.30;;;;;;;9.50;84.01;99673.16;5028637;28;20061;-64
2022/11/04 01:38:55;;;;;;;12.07;6.45;;;;;;;9.52;83.53;99672.09;5031275;28;20061;-64
2022/11/04 01:41:26;;;;;;;19.58;7.65;;;;;;;9.52;82.82;99671.28;5030341;28;20053;-64
2022/11/04 01:43:54;;;;;;;19.67;7.05;;;;;;;9.52;82.96;99666.03;5031100;28;20075;-63
2022/11/04 01:46:25;;;;;;;14.77;7.18;;;;;;;9.50;83.08;99663.50;5029249;28;20144;-64
2022/11/04 01:48:55;;;;;;;13.45;6.78;;;;;;;9.50;83.23;99655.63;5030437;28;20063;-64
2022/11/04 01:51:22;;;;;;;12.50;6.35;;;;;;;9.51;84.08;99670.44;5030032;28;20060;-64
2022/11/04 01:53:50;;;;;;;17.98;7.45;;;;;;;9.52;84.06;99682.63;5023033;28;20053;-64
2022/11/04 01:56:19;;;;;;;16.58;7.28;;;;;;;9.52;84.34;99682.63;5033544;28;20141;-62
2022/11/04 01:58:50;;;;;;;11.77;7.28;;;;;;;9.54;85.12;99685.97;5026552;28;20058;-65
2022/11/04 02:01:17;;;;;;;11.35;6.38;;;;;;;9.56;85.63;99676.22;5028720;28;20506;-64
2022/11/04 02:03:50;;;;;;;15.65;7.15;;;;;;;9.59;85.92;99681.25;5026123;28;20096;-64
2022/11/04 02:06:18;;;;;;;17.85;6.85;;;;;;;9.59;85.87;99669.88;5028873;28;20084;-64
2022/11/04 02:08:45;;;;;;;11.93;6.25;;;;;;;9.60;86.29;99661.91;5030281;28;20128;-64
2022/11/04 02:12:48;;;;;;;11.52;6.35;;;;;;;9.57;85.84;99659.47;5028727;28;20045;-65
2022/11/04 02:14:00;;;;;;;11.80;6.53;;;;;;;9.57;85.62;99663.91;5028852;28;20422;-64
2022/11/04 02:16:37;;;;;;;15.68;7.38;;;;;;;9.49;84.34;99666.22;5027706;28;20062;-65
2022/11/04 02:19:38;;;;;;;13.45;6.53;;;;;;;9.47;85.12;99657.63;5028105;28;20561;-64
2022/11/04 02:22:42;;;;;;;16.55;7.15;;;;;;;9.46;84.45;99645.44;5027833;28;20481;-63
2022/11/04 02:25:25;;;;;;;11.73;6.65;;;;;;;9.48;85.38;99643.53;5029960;28;20107;-63
2022/11/04 02:28:07;;;;;;;10.60;6.22;;;;;;;9.47;85.44;99636.59;5032806;28;20057;-64
2022/11/04 02:30:43;;;;;;;14.30;7.28;;;;;;;9.47;85.26;99633.97;5032431;28;20106;-63
2022/11/04 02:33:41;;;;;;;11.40;6.93;;;;;;;9.48;85.54;99639.13;5016531;28;20061;-65
2022/11/04 02:36:20;;;;;;;17.20;7.43;;;;;;;9.49;85.25;99637.31;5027640;28;20536;-64
2022/11/04 02:39:15;;;;;;;15.73;7.03;;;;;;;9.45;86.21;99631.44;5029294;28;20140;-62
2022/11/04 02:41:56;;;;;;;17.98;7.50;;;;;;;9.46;86.51;99630.50;4999499;28;20064;-63
2022/11/04 02:44:34;;;;;;;13.55;6.93;;;;;;;9.46;86.54;99634.94;5021814;28;20055;-64
2022/11/04 02:47:05;;;;;;;15.90;7.93;;;;;;;9.46;86.77;99638.41;5026826;28;20057;-62
2022/11/04 02:49:50;;;;;;;12.27;7.20;;;;;;;9.45;86.66;99638.47;5012351;28;20136;-62
2022/11/04 02:52:38;;;;;;;13.32;6.68;;;;;;;9.44;86.62;99632.41;5028396;28;20037;-63
2022/11/04 02:55:11;;;;;;;13.32;7.28;;;;;;;9.43;87.13;99633.34;5030280;28;20068;-64
2022/11/04 02:57:40;;;;;;;13.02;7.13;;;;;;;9.41;86.44;99629.13;5029427;28;20057;-62
2022/11/04 03:00:09;;;;;;;16.17;6.85;;;;;;;9.41;86.79;99623.88;5027628;28;20049;-64
2022/11/04 03:02:40;;;;;;;11.73;6.70;;;;;;;9.36;86.61;99618.94;5027713;28;20073;-62
2022/11/04 03:05:11;;;;;;;12.30;6.63;;;;;;;9.35;86.96;99626.00;5024928;28;20266;-64
2022/11/04 03:07:40;;;;;;;14.27;7.55;;;;;;;9.34;86.27;99621.69;5026722;28;20062;-64
2022/11/04 03:10:15;;;;;;;16.30;7.55;;;;;;;9.35;86.19;99610.22;5026103;28;20057;-62
2022/11/04 03:12:57;;;;;;;15.90;6.97;;;;;;;9.34;86.15;99602.47;5027595;28;20057;-64
2022/11/04 03:15:30;;;;;;;12.00;6.72;;;;;;;9.31;85.38;99613.19;5024236;28;20053;-63
2022/11/04 03:18:28;;;;;;;19.48;7.75;;;;;;;9.29;85.53;99613.31;5026873;28;20402;-63
2022/11/04 03:20:57;;;;;;;14.05;6.70;;;;;;;9.32;85.49;99625.34;5025973;28;20041;-64
2022/11/04 03:23:24;;;;;;;14.35;7.25;;;;;;;9.26;85.45;99623.16;5026256;28;20140;-64
2022/11/04 03:25:57;;;;;;;16.02;6.93;;;;;;;9.16;85.88;99622.97;5027088;28;20049;-64
2022/11/04 03:28:48;;;;;;;12.98;7.20;;;;;;;9.13;86.42;99625.78;5026352;28;20821;-64
2022/11/04 03:31:22;;;;;;;12.38;7.50;;;;;;;9.20;86.88;99613.94;5027983;28;20048;-64
2022/11/04 03:33:51;;;;;;;14.27;7.45;;;;;;;9.24;86.80;99614.56;5028822;28;20144;-64
2022/11/04 03:36:19;;;;;;;15.00;7.75;;;;;;;9.25;86.28;99624.13;5026844;28;20050;-63
2022/11/04 03:38:46;;;;;;;12.68;7.32;;;;;;;9.26;87.08;99625.78;5027081;28;20053;-62
2022/11/04 03:41:37;;;;;;;13.30;7.43;;;;;;;9.28;87.16;99621.28;5027214;28;20057;-63
2022/11/04 03:44:04;;;;;;;15.60;7.63;;;;;;;9.30;87.21;99635.97;5027280;28;20063;-63
2022/11/04 03:46:31;;;;;;;12.90;7.55;;;;;;;9.30;86.93;99651.75;5029237;28;20130;-63
2022/11/04 03:48:59;;;;;;;12.82;7.35;;;;;;;9.30;86.92;99667.50;5027430;28;20525;-63
2022/11/04 03:51:27;;;;;;;13.18;7.10;;;;;;;9.30;87.48;99661.41;5026748;28;20144;-63
2022/11/04 03:53:54;;;;;;;14.40;7.00;;;;;;;9.33;87.97;99642.81;5029925;28;20053;-63
2022/11/04 03:56:41;;;;;;;16.65;7.40;;;;;;;9.35;88.88;99657.50;5022502;28;20054;-62
2022/11/04 03:59:32;;;;;;;12.65;7.57;;;;;;;9.36;88.74;99651.31;5020492;28;20170;-63
2022/11/04 04:02:04;;;;;;;16.15;7.35;;;;;;;9.37;88.55;99652.16;5026291;28;20084;-63
2022/11/04 04:04:35;;;;;;;18.20;7.97;;;;;;;9.38;88.19;99651.22;5026845;28;20060;-63
2022/11/04 04:07:16;;;;;;;13.77;7.22;;;;;;;9.38;88.17;99646.81;5025709;28;20076;-63
2022/11/04 04:09:49;;;;;;;15.23;7.40;;;;;;;9.37;88.44;99634.63;5025281;28;20137;-62
2022/11/04 04:12:26;;;;;;;14.90;7.30;;;;;;;9.37;88.76;99642.50;5022765;28;20128;-63
2022/11/04 04:14:58;;;;;;;12.20;7.53;;;;;;;9.37;88.47;99650.38;5023561;28;20140;-63
2022/11/04 04:18:04;;;;;;;16.83;7.60;;;;;;;9.37;88.75;99642.50;5025195;28;20149;-64
2022/11/04 04:20:34;;;;;;;11.30;6.33;;;;;;;9.40;89.41;99644.06;5029280;28;20067;-61
2022/11/04 04:28:42;;;;;;;13.02;6.95;;;;;;;9.46;89.21;99641.03;5000890;28;20131;-64
2022/11/04 04:31:11;;;;;;;13.75;7.63;;;;;;;9.45;89.78;99649.81;5029124;28;20063;-63
2022/11/04 04:33:38;;;;;;;14.00;8.02;;;;;;;9.48;89.37;99647.00;5027401;28;20137;-63
2022/11/04 04:36:08;;;;;;;13.48;7.40;;;;;;;9.44;89.53;99644.69;5032093;28;20045;-63
2022/11/04 04:47:18;;;;;;;16.02;7.15;;;;;;;9.48;90.05;99631.22;5029710;28;20141;-65
2022/11/04 04:49:56;;;;;;;17.50;7.80;;;;;;;9.50;90.48;99631.97;5028508;28;20053;-62
2022/11/04 04:52:30;;;;;;;13.77;7.53;;;;;;;9.50;90.45;99629.34;5024135;28;20046;-62
2022/11/04 04:54:57;;;;;;;16.40;7.22;;;;;;;9.50;90.16;99624.09;5030449;28;20050;-63
2022/11/04 04:57:24;;;;;;;15.07;7.57;;;;;;;9.52;90.92;99627.44;5037101;28;20053;-63
2022/11/04 04:59:52;;;;;;;15.20;8.25;;;;;;;9.52;90.53;99630.06;5035279;28;20053;-63
2022/11/04 05:02:19;;;;;;;11.82;6.70;;;;;;;9.54;91.13;99628.16;5028382;28;20901;-64
2022/11/04 05:04:46;;;;;;;13.82;8.10;;;;;;;9.55;91.37;99643.00;5026605;28;20139;-63
2022/11/04 05:07:13;;;;;;;13.25;6.97;;;;;;;9.56;91.13;99638.59;5031033;28;20569;-64
2022/11/04 05:09:41;;;;;;;13.60;8.27;;;;;;;9.56;91.28;99652.56;5024729;28;20136;-64
2022/11/04 05:12:08;;;;;;;17.63;7.70;;;;;;;9.59;91.38;99651.50;5027138;28;20129;-64
2022/11/04 05:14:36;;;;;;;15.68;7.70;;;;;;;9.60;90.83;99658.44;5031119;28;20140;-63
2022/11/04 05:17:03;;;;;;;15.52;8.57;;;;;;;9.60;91.06;99651.41;5027808;28;20157;-63
2022/11/04 05:19:30;;;;;;;17.17;8.35;;;;;;;9.63;91.24;99651.16;5031564;28;20104;-63
2022/11/04 05:21:58;;;;;;;12.82;7.93;;;;;;;9.66;91.81;99655.38;5029426;28;20057;-63
2022/11/04 05:24:25;;;;;;;15.38;9.02;;;;;;;9.64;90.93;99652.03;5031541;28;20141;-63
2022/11/04 05:26:52;;;;;;;15.68;8.55;;;;;;;9.60;90.67;99656.66;5033374;28;20136;-64
2022/11/04 05:29:19;;;;;;;16.13;8.30;;;;;;;9.59;90.55;99660.25;5027703;28;20132;-64
2022/11/04 05:31:46;;;;;;;14.40;7.85;;;;;;;9.47;91.54;99663.72;5030949;28;20057;-63
2022/11/04 05:34:13;;;;;;;14.35;7.47;;;;;;;9.47;91.62;99671.59;5029738;28;20053;-63
2022/11/04 05:36:41;;;;;;;13.00;8.63;;;;;;;9.49;91.45;99671.47;5031046;28;20085;-63
2022/11/04 05:39:11;;;;;;;16.17;8.10;;;;;;;9.52;91.65;99676.53;5030358;28;20465;-64
2022/11/04 05:41:38;;;;;;;15.20;7.60;;;;;;;9.54;91.23;99678.09;5029910;28;20053;-63
2022/11/04 05:44:08;;;;;;;17.20;7.13;;;;;;;9.58;91.48;99678.72;5023002;28;20045;-64
2022/11/04 05:46:35;;;;;;;16.25;7.82;;;;;;;9.58;91.23;99676.09;5030928;28;20223;-63
2022/11/04 05:49:02;;;;;;;16.17;8.05;;;;;;;9.60;91.15;99682.94;5030688;28;20050;-64
2022/11/04 05:51:31;;;;;;;13.57;8.07;;;;;;;9.62;90.53;99688.06;5029110;28;20045;-63
2022/11/04 05:53:59;;;;;;;14.75;7.45;;;;;;;9.63;91.43;99685.31;5031377;28;20144;-63
2022/11/04 05:56:26;;;;;;;17.77;8.60;;;;;;;9.68;91.74;99692.91;5030849;28;20053;-63
2022/11/04 05:58:54;;;;;;;14.98;7.93;;;;;;;9.69;91.51;99693.75;5028329;28;20778;-63
2022/11/04 06:01:28;;;;;;;16.45;7.88;;;;;;;9.66;91.48;99694.78;5028701;28;20049;-64
2022/11/04 06:03:56;;;;;;;15.10;7.90;;;;;;;9.64;91.61;99692.28;5025414;28;20052;-63
2022/11/04 06:06:24;;;;;;;12.63;7.65;;;;;;;9.68;91.80;99697.31;5028557;28;20050;-64
2022/11/04 06:08:52;;;;;;;16.10;8.38;;;;;;;9.64;91.61;99696.69;5031449;28;20057;-64
2022/11/04 06:11:19;;;;;;;17.83;8.35;;;;;;;9.61;91.16;99708.25;5027250;28;20403;-64
2022/11/04 06:13:47;;;;;;;13.65;8.32;;;;;;;9.58;91.28;99708.47;5029865;28;20128;-64
2022/11/04 06:16:14;;;;;;;17.67;8.05;;;;;;;9.60;91.69;99717.09;5029912;28;20151;-64
2022/11/04 06:18:41;;;;;;;16.52;7.65;;;;;;;9.63;91.92;99716.84;5028005;28;20065;-63
2022/11/04 06:21:12;;;;;;;18.33;9.05;;;;;;;9.61;91.65;99710.88;5029152;28;20056;-63
2022/11/04 06:23:42;;;;;;;15.38;7.18;;;;;;;9.62;92.26;99722.22;5024257;28;20045;-64
2022/11/04 06:26:10;;;;;;;13.23;8.10;;;;;;;9.65;92.65;99724.66;5028301;28;21553;-64
2022/11/04 06:28:38;;;;;;;20.33;9.07;;;;;;;9.70;92.44;99727.81;5028865;28;20060;-64
2022/11/04 06:31:07;;;;;;;27.23;9.43;;;;;;;9.71;92.31;99726.00;5029787;28;20406;-64
2022/11/04 06:33:35;;;;;;;17.25;8.45;;;;;;;9.73;92.26;99724.13;5025758;28;20128;-63
2022/11/04 06:36:05;;;;;;;12.27;8.07;;;;;;;9.70;92.19;99717.28;5029473;28;20056;-64
2022/11/04 06:38:33;;;;;;;15.70;8.90;;;;;;;9.72;92.34;99719.78;5025792;28;20049;-64
2022/11/04 06:41:01;;;;;;;17.90;8.70;;;;;;;9.73;92.34;99737.28;5030332;28;20057;-63
2022/11/04 06:43:28;;;;;;;14.63;8.13;;;;;;;9.76;92.56;99739.66;5029755;28;20050;-64
2022/11/04 06:45:56;;;;;;;15.60;8.63;;;;;;;9.77;92.21;99738.72;5030257;28;20502;-64
2022/11/04 06:48:24;;;;;;;14.82;8.18;;;;;;;9.76;92.31;99740.50;5027654;28;20066;-63
2022/11/04 06:50:51;;;;;;;15.38;8.27;;;;;;;9.77;92.23;99744.84;5029220;28;20053;-63
2022/11/04 06:53:18;;;;;;;14.75;8.48;;;;;;;9.77;91.95;99743.97;5031888;28;20046;-65
2022/11/04 06:55:46;;;;;;;18.05;8.75;;;;;;;9.76;91.89;99755.44;5029287;28;20538;-64
2022/11/04 06:58:13;;;;;;;14.32;8.25;;;;;;;9.78;92.01;99748.31;5026062;28;20064;-63
2022/11/04 07:00:40;;;;;;;15.23;8.85;;;;;;;9.80;92.43;99759.53;5032852;28;20049;-64
2022/11/04 07:03:08;;;;;;;20.30;9.85;;;;;;;9.77;93.78;99765.00;5027504;28;20152;-63
2022/11/04 07:05:36;;;;;;;14.90;9.43;;;;;;;9.73;93.54;99766.19;5029198;28;20161;-63
2022/11/04 07:08:03;;;;;;;17.15;10.90;;;;;;;9.63;96.08;99763.31;5027237;28;20077;-63
2022/11/04 07:10:30;;;;;;;21.08;11.48;;;;;;;9.59;96.44;99761.84;5029106;28;20053;-64
2022/11/04 07:12:58;;;;;;;19.33;10.30;;;;;;;9.56;96.14;99765.53;5026567;28;20046;-63
2022/11/04 07:15:25;;;;;;;19.15;12.07;;;;;;;9.60;96.61;99764.38;5028811;28;20049;-64
2022/11/04 07:17:53;;;;;;;17.33;11.00;;;;;;;9.59;97.74;99767.97;5028688;28;20136;-64
2022/11/04 07:20:20;;;;;;;18.40;9.85;;;;;;;9.58;97.97;99757.53;5028649;28;20108;-64
2022/11/04 07:22:48;;;;;;;17.48;9.43;;;;;;;9.63;97.21;99758.06;5025620;28;20129;-63
2022/11/04 07:25:15;;;;;;;15.43;10.52;;;;;;;9.69;97.50;99762.09;5030028;28;20522;-63
2022/11/04 07:27:42;;;;;;;16.67;11.00;;;;;;;9.75;97.92;99751.13;5026017;28;20060;-62
2022/11/04 07:30:09;;;;;;;18.13;10.48;;;;;;;9.79;98.23;99749.97;5027113;28;20426;-63
2022/11/04 07:32:36;;;;;;;15.02;9.38;;;;;;;9.78;98.92;99757.03;5028900;28;20058;-63
2022/11/04 07:35:04;;;;;;;14.18;10.90;;;;;;;9.74;99.84;99760.81;5031686;28;20098;-63
2022/11/04 07:37:31;;;;;;;17.60;9.82;;;;;;;9.73;100.00;99751.25;5032614;28;20646;-63
2022/11/04 07:39:59;;;;;;;12.52;10.23;;;;;;;9.76;100.00;99758.06;5039845;28;20056;-64
2022/11/04 07:42:26;;;;;;;16.17;10.23;;;;;;;9.81;100.00;99756.78;5040565;28;20113;-63
2022/11/04 07:44:53;;;;;;;17.65;10.65;;;;;;;9.85;100.00;99754.78;5036363;28;20136;-62
2022/11/04 07:47:20;;;;;;;13.25;8.93;;;;;;;9.90;100.00;99755.31;5028766;28;20111;-61
2022/11/04 07:49:48;;;;;;;28.80;11.45;;;;;;;9.93;100.00;99752.47;5029637;28;20053;-61
2022/11/04 07:52:15;;;;;;;26.67;12.13;;;;;;;9.96;100.00;99749.66;5030703;28;20046;-63
2022/11/04 07:54:42;;;;;;;20.90;10.20;;;;;;;10.01;100.00;99744.91;5032861;28;20132;-63
2022/11/04 07:57:09;;;;;;;21.58;10.98;;;;;;;10.08;100.00;99737.41;5026367;28;20060;-65
2022/11/04 07:59:37;;;;;;;27.52;12.93;;;;;;;10.08;100.00;99738.22;5032670;28;20076;-65
2022/11/04 08:02:04;;;;;;;27.25;13.40;;;;;;;10.09;100.00;99731.22;5031395;28;20152;-62
2022/11/04 08:04:32;;;;;;;16.65;10.80;;;;;;;10.12;100.00;99728.34;5032605;28;20065;-63
2022/11/04 08:06:59;;;;;;;17.80;11.30;;;;;;;10.15;100.00;99728.97;5032440;28;20461;-62
2022/11/04 08:09:26;;;;;;;14.82;10.02;;;;;;;10.19;100.00;99732.22;5032505;28;20096;-62
2022/11/04 08:11:53;;;;;;;17.45;10.40;;;;;;;10.24;100.00;99737.16;5027211;28;20057;-64
2022/11/04 08:14:20;;;;;;;16.77;9.65;;;;;;;10.29;100.00;99730.66;5032365;28;20132;-62
2022/11/04 08:16:50;;;;;;;19.80;10.48;;;;;;;10.35;100.00;99735.44;5027062;28;20595;-63
2022/11/04 08:19:17;;;;;;;15.68;9.95;;;;;;;10.49;100.00;99726.59;5029085;28;20041;-63
2022/11/04 08:21:44;;;;;;;17.20;10.98;;;;;;;10.45;100.00;99740.09;5033091;28;20065;-61
2022/11/04 08:24:11;;;;;;;15.32;10.90;;;;;;;10.41;100.00;99744.72;5036337;28;20121;-63
2022/11/04 08:26:38;;;;;;;15.85;11.05;;;;;;;10.38;100.00;99753.66;5029924;28;20045;-62
2022/11/04 08:29:09;;;;;;;18.90;10.48;;;;;;;10.42;100.00;99762.19;5029147;28;20140;-62
2022/11/04 08:31:36;;;;;;;17.17;9.73;;;;;;;10.43;100.00;99755.13;5033894;28;20918;-62
2022/11/04 08:34:05;;;;;;;16.75;10.38;;;;;;;10.40;100.00;99753.53;5029970;28;20068;-63
2022/11/04 08:36:35;;;;;;;19.85;11.20;;;;;;;10.48;100.00;99759.09;5033099;28;20063;-62
2022/11/04 08:39:04;;;;;;;18.70;12.02;;;;;;;10.47;100.00;99757.41;5028965;28;20092;-64
2022/11/04 08:41:39;;;;;;;15.77;10.98;;;;;;;10.48;100.00;99760.88;5035433;28;20051;-61
2022/11/04 08:44:07;;;;;;;18.60;11.55;;;;;;;10.50;100.00;99762.47;5030172;28;20077;-62
2022/11/04 08:46:37;;;;;;;16.45;11.52;;;;;;;10.48;100.00;99772.25;5031732;28;20065;-64
2022/11/04 08:49:04;;;;;;;18.65;11.38;;;;;;;10.49;100.00;99768.69;5030138;28;20053;-64
2022/11/04 08:51:39;;;;;;;15.68;11.90;;;;;;;10.53;100.00;99758.75;5031882;28;20092;-64
2022/11/04 08:54:07;;;;;;;18.50;11.50;;;;;;;10.55;100.00;99760.34;5029518;28;20049;-64
2022/11/04 08:56:36;;;;;;;17.48;11.32;;;;;;;10.59;100.00;99771.50;5030388;28;20383;-64
2022/11/04 08:59:03;;;;;;;16.65;10.55;;;;;;;10.58;100.00;99781.19;5029272;28;20062;-63
2022/11/04 09:01:33;;;;;;;15.23;9.90;;;;;;;10.59;100.00;99790.75;5032307;28;20064;-63
2022/11/04 09:04:03;;;;;;;13.93;10.20;;;;;;;10.61;100.00;99785.38;5028374;28;20053;-62
2022/11/04 09:06:34;;;;;;;14.73;10.40;;;;;;;10.63;100.00;99775.59;5030712;28;20057;-63
2022/11/04 09:09:03;;;;;;;16.48;9.82;;;;;;;10.67;100.00;99770.91;5031664;28;20146;-64
2022/11/04 09:11:32;;;;;;;18.48;9.85;;;;;;;10.68;100.00;99772.63;5024442;28;20057;-64
2022/11/04 09:14:00;;;;;;;19.75;8.80;;;;;;;10.70;100.00;99763.63;5031002;28;20063;-64
2022/11/04 09:16:31;;;;;;;13.40;9.43;;;;;;;10.70;100.00;99761.00;5029963;28;20166;-64
2022/11/04 09:18:58;;;;;;;15.15;9.25;;;;;;;10.74;100.00;99757.19;5029773;28;20057;-64
2022/11/04 09:21:26;;;;;;;17.00;9.57;;;;;;;10.74;100.00;99756.38;5031628;28;20139;-64
2022/11/04 09:23:54;;;;;;;13.68;9.65;;;;;;;10.77;100.00;99756.16;5033462;28;20406;-64
2022/11/04 09:26:22;;;;;;;14.93;10.02;;;;;;;10.74;100.00;99744.03;5029723;28;20140;-63
2022/11/04 09:28:54;;;;;;;16.10;9.75;;;;;;;10.77;100.00;99725.41;5027557;28;20053;-64
2022/11/04 09:31:21;;;;;;;17.40;9.73;;;;;;;10.77;100.00;99728.03;5033062;28;20081;-63
2022/11/04 09:33:49;;;;;;;17.63;10.10;;;;;;;10.75;100.00;99747.50;5030898;28;20132;-64
2022/11/04 09:36:16;;;;;;;17.95;10.10;;;;;;;10.75;100.00;99745.72;5031864;28;20081;-62
2022/11/04 09:38:44;;;;;;;14.60;10.05;;;;;;;10.74;100.00;99744.03;5028078;28;20136;-64
2022/11/04 09:41:11;;;;;;;14.20;10.95;;;;;;;10.75;100.00;99745.72;5024626;28;20633;-64
2022/11/04 09:44:18;;;;;;;17.15;9.93;;;;;;;10.76;100.00;99736.88;5030379;28;20080;-64
2022/11/04 09:46:47;;;;;;;;;;;;;;;10.80;100.00;99737.47;5031182;28;20522;-61
2022/11/04 09:49:15;;;;;;;18.15;10.00;;;;;;;10.85;100.00;99730.94;5028234;28;19925;-64
2022/11/04 09:51:45;;;;;;;13.48;8.70;;;;;;;10.85;100.00;99733.56;5030634;28;20053;-64
2022/11/04 09:54:24;;;;;;;11.88;8.45;;;;;;;10.85;100.00;99730.06;5029197;28;20068;-63
2022/11/04 09:56:52;;;;;;;15.07;9.60;;;;;;;10.88;100.00;99733.31;5024615;28;20064;-63
2022/11/04 09:59:27;;;;;;;15.05;9.55;;;;;;;10.95;100.00;99744.25;5025071;28;20059;-64
2022/11/04 10:02:10;;;;;;;18.60;10.27;;;;;;;10.90;100.00;99739.34;5029457;28;20427;-63
2022/11/04 10:04:49;;;;;;;14.77;10.63;;;;;;;10.88;100.00;99756.19;5027858;28;20059;-63
2022/11/04 10:07:35;;;;;;;17.02;11.23;;;;;;;10.92;100.00;99769.97;5029942;28;20063;-64
2022/11/04 10:10:08;;;;;;;15.73;10.23;;;;;;;10.90;100.00;99785.91;5028787;28;20053;-64
2022/11/04 10:12:47;;;;;;;18.73;12.32;;;;;;;10.91;100.00;99803.38;5031831;28;20053;-64
2022/11/04 10:15:46;;;;;;;15.82;10.95;;;;;;;10.88;100.00;99793.03;5028715;28;20045;-64
2022/11/04 10:18:42;;;;;;;21.13;11.73;;;;;;;10.93;100.00;99785.66;5027815;28;20053;-64
2022/11/04 10:21:24;;;;;;;15.43;8.73;;;;;;;10.93;100.00;99779.53;5027576;28;20061;-64
2022/11/04 10:24:06;;;;;;;11.05;8.50;;;;;;;11.01;100.00;99785.94;5027180;28;20050;-64
2022/11/04 10:26:42;;;;;;;15.15;9.02;;;;;;;10.92;100.00;99791.03;5030604;28;20140;-64
2022/11/04 10:29:24;;;;;;;16.35;9.35;;;;;;;10.89;100.00;99807.88;5026153;28;20045;-62
2022/11/04 10:31:52;;;;;;;14.63;9.48;;;;;;;10.96;100.00;99803.88;5026471;28;20195;-64
2022/11/04 10:34:28;;;;;;;16.75;9.30;;;;;;;10.94;100.00;99811.03;5028696;28;20041;-63
2022/11/04 10:36:55;;;;;;;;;;;;;;;10.99;100.00;99803.66;5030107;28;20512;-63
2022/11/04 10:39:27;;;;;;;14.85;10.25;;;;;;;10.99;100.00;99813.34;5029211;28;20350;-63
2022/11/04 10:41:56;;;;;;;16.58;10.50;;;;;;;11.01;100.00;99812.25;5027678;28;20391;-63
2022/11/04 10:44:24;;;;;;;14.23;10.20;;;;;;;11.11;100.00;99817.69;5026668;28;20058;-62
2022/11/04 10:47:14;;;;;;;16.90;9.80;;;;;;;11.09;100.00;99812.53;5029497;28;20081;-64
2022/11/04 10:49:48;;;;;;;12.68;9.30;;;;;;;10.96;100.00;99808.28;5029869;28;20145;-63
2022/11/04 10:52:36;;;;;;;10.15;7.53;;;;;;;10.99;100.00;99813.34;5029347;28;20067;-63
2022/11/04 10:55:48;;;;;;;12.63;7.35;;;;;;;10.93;100.00;99809.34;5031474;28;20046;-63
2022/11/04 10:58:22;;;;;;;10.10;7.45;;;;;;;10.96;100.00;99809.13;5024818;28;21673;-64
2022/11/04 11:00:51;;;;;;;12.68;7.35;;;;;;;10.88;100.00;99814.13;5022649;28;20136;-63
2022/11/04 11:03:33;;;;;;;12.68;7.10;;;;;;;10.90;100.00;99825.41;5029123;28;20455;-65
2022/11/04 11:06:14;;;;;;;9.23;6.80;;;;;;;10.94;100.00;99824.19;5027704;28;20087;-62
2022/11/04 11:08:43;;;;;;;10.98;6.63;;;;;;;10.96;100.00;99832.00;5026908;28;20582;-64
2022/11/04 11:11:11;;;;;;;11.20;7.88;;;;;;;11.05;100.00;99829.53;5028539;28;20132;-64
2022/11/04 11:13:40;;;;;;;11.00;7.90;;;;;;;11.00;100.00;99831.66;5027449;28;20553;-64
2022/11/04 11:16:18;;;;;;;11.57;8.07;;;;;;;10.96;100.00;99837.25;5026781;28;20503;-64
2022/11/04 11:19:13;;;;;;;12.82;7.30;;;;;;;10.90;100.00;99847.28;5029251;28;20544;-64
2022/11/04 11:21:48;;;;;;;9.68;7.50;;;;;;;10.87;100.00;99842.25;5029170;28;20659;-64
2022/11/04 11:24:26;;;;;;;10.82;7.80;;;;;;;10.89;100.00;99852.66;5027688;28;20073;-63
2022/11/04 11:26:58;;;;;;;13.38;7.45;;;;;;;10.88;100.00;99850.97;5028171;28;20124;-63
2022/11/04 11:29:28;;;;;;;13.63;8.95;;;;;;;10.86;100.00;99853.72;5026037;28;20085;-63
2022/11/04 11:31:56;;;;;;;19.00;7.75;;;;;;;10.85;100.00;99857.31;5030396;28;20136;-64
2022/11/04 11:34:31;;;;;;;9.73;8.20;;;;;;;10.82;100.00;99865.44;5021119;28;20096;-64
2022/11/04 11:37:02;;;;;;;11.80;7.30;;;;;;;10.74;100.00;99864.31;5030378;28;20054;-62
2022/11/04 11:39:31;;;;;;;8.93;6.82;;;;;;;10.74;100.00;99870.41;5027232;28;20481;-63
2022/11/04 11:42:00;;;;;;;12.75;7.57;;;;;;;10.76;100.00;99870.28;5027867;28;20057;-64
2022/11/04 11:44:31;;;;;;;10.52;7.20;;;;;;;10.81;100.00;99869.03;5020469;28;20478;-63
2022/11/04 11:47:04;;;;;;;12.35;8.70;;;;;;;10.84;100.00;99870.56;5027027;28;20136;-63
2022/11/04 11:49:36;;;;;;;11.15;7.45;;;;;;;10.82;100.00;99875.13;5025601;28;20144;-63
2022/11/04 11:52:23;;;;;;;13.40;8.20;;;;;;;10.85;100.00;99867.00;5028942;28;20049;-62
2022/11/04 11:54:52;;;;;;;14.27;8.38;;;;;;;10.86;100.00;99873.97;5030651;28;20053;-63
2022/11/04 11:57:34;;;;;;;14.48;9.18;;;;;;;10.83;100.00;99864.47;5020299;28;20099;-63
2022/11/04 12:00:08;;;;;;;14.52;9.57;;;;;;;10.78;100.00;99871.03;5024887;28;20463;-63
2022/11/04 12:03:19;;;;;;;16.75;10.32;;;;;;;10.72;100.00;99863.59;5027701;28;20056;-61
2022/11/04 12:06:26;;;;;;;11.95;9.93;;;;;;;10.77;100.00;99870.19;5019009;28;20558;-61
2022/11/04 12:09:10;;;;;;;12.38;11.07;;;;;;;10.74;100.00;99867.78;5024492;28;20518;-64
2022/11/04 12:12:11;;;;;;;12.82;10.52;;;;;;;10.77;100.00;99861.47;5025302;28;20119;-65
2022/11/04 12:15:17;;;;;;;15.07;11.05;;;;;;;10.77;100.00;99858.81;5028001;28;20064;-65
2022/11/04 12:17:54;;;;;;;22.00;10.75;;;;;;;10.76;100.00;99855.34;5029649;28;20077;-64
2022/11/04 12:20:23;;;;;;;17.27;10.57;;;;;;;10.81;100.00;99858.50;5028302;28;20049;-67